sensor_id;sensor_type;location;lat;lon;timestamp;temperature;humidity
8114;DHT22;4099;52.684;9.918;2023-05-10T00:01:04;13.20;69.20
8114;DHT22;4099;52.684;9.918;2023-05-10T00:06:08;13.10;71.50
8114;DHT22;4099;52.684;9.918;2023-05-10T00:11:11;13.00;73.70
8114;DHT22;4099;52.684;9.918;2023-05-10T00:16:18;13.00;75.10
8114;DHT22;4099;52.684;9.918;2023-05-10T00:21:26;13.00;77.90
8114;DHT22;4099;52.684;9.918;2023-05-10T00:26:30;13.00;79.50
8114;DHT22;4099;52.684;9.918;2023-05-10T00:31:43;13.00;79.20
8114;DHT22;4099;52.684;9.918;2023-05-10T00:36:50;12.90;81.50
8114;DHT22;4099;52.684;9.918;2023-05-10T00:41:56;13.00;82.90
8114;DHT22;4099;52.684;9.918;2023-05-10T00:47:11;12.80;85.30
8114;DHT22;4099;52.684;9.918;2023-05-10T00:52:22;12.70;88.30
8114;DHT22;4099;52.684;9.918;2023-05-10T00:57:26;12.80;88.40
8114;DHT22;4099;52.684;9.918;2023-05-10T01:02:37;12.90;89.20
8114;DHT22;4099;52.684;9.918;2023-05-10T01:07:43;12.70;91.10
8114;DHT22;4099;52.684;9.918;2023-05-10T01:12:54;12.80;91.40
8114;DHT22;4099;52.684;9.918;2023-05-10T01:18:00;12.70;92.20
8114;DHT22;4099;52.684;9.918;2023-05-10T01:23:33;12.40;94.00
8114;DHT22;4099;52.684;9.918;2023-05-10T01:29:14;12.40;94.40
8114;DHT22;4099;52.684;9.918;2023-05-10T01:34:29;12.30;95.30
8114;DHT22;4099;52.684;9.918;2023-05-10T01:39:44;11.90;99.90
8114;DHT22;4099;52.684;9.918;2023-05-10T01:44:54;11.70;99.90
8114;DHT22;4099;52.684;9.918;2023-05-10T01:50:08;11.60;99.90
8114;DHT22;4099;52.684;9.918;2023-05-10T01:55:19;11.50;99.90
8114;DHT22;4099;52.684;9.918;2023-05-10T02:00:32;11.60;99.90
8114;DHT22;4099;52.684;9.918;2023-05-10T02:05:39;11.50;99.90
8114;DHT22;4099;52.684;9.918;2023-05-10T02:11:13;11.40;99.90
8114;DHT22;4099;52.684;9.918;2023-05-10T02:16:29;11.40;99.90
8114;DHT22;4099;52.684;9.918;2023-05-10T02:21:40;11.60;99.90
8114;DHT22;4099;52.684;9.918;2023-05-10T02:26:44;11.80;99.90
8114;DHT22;4099;52.684;9.918;2023-05-10T02:32:02;11.90;99.90
8114;DHT22;4099;52.684;9.918;2023-05-10T02:37:12;11.80;99.90
8114;DHT22;4099;52.684;9.918;2023-05-10T02:42:22;11.80;99.90
8114;DHT22;4099;52.684;9.918;2023-05-10T02:47:31;12.00;99.90
8114;DHT22;4099;52.684;9.918;2023-05-10T02:52:40;12.00;99.90
8114;DHT22;4099;52.684;9.918;2023-05-10T02:57:50;12.00;99.90
8114;DHT22;4099;52.684;9.918;2023-05-10T03:02:56;12.00;99.90
8114;DHT22;4099;52.684;9.918;2023-05-10T03:08:13;11.90;99.90
8114;DHT22;4099;52.684;9.918;2023-05-10T03:13:27;11.90;99.90
8114;DHT22;4099;52.684;9.918;2023-05-10T03:18:43;11.80;99.90
8114;DHT22;4099;52.684;9.918;2023-05-10T03:23:59;11.90;99.90
8114;DHT22;4099;52.684;9.918;2023-05-10T03:29:18;11.90;99.90
8114;DHT22;4099;52.684;9.918;2023-05-10T03:34:32;11.90;99.90
8114;DHT22;4099;52.684;9.918;2023-05-10T03:39:37;11.80;99.90
8114;DHT22;4099;52.684;9.918;2023-05-10T03:44:48;11.80;99.90
8114;DHT22;4099;52.684;9.918;2023-05-10T03:50:00;11.70;99.90
8114;DHT22;4099;52.684;9.918;2023-05-10T03:55:20;11.60;99.90
8114;DHT22;4099;52.684;9.918;2023-05-10T04:00:35;11.70;99.90
8114;DHT22;4099;52.684;9.918;2023-05-10T04:05:41;11.80;99.90
8114;DHT22;4099;52.684;9.918;2023-05-10T04:11:07;11.80;99.90
8114;DHT22;4099;52.684;9.918;2023-05-10T04:16:31;11.80;99.90
8114;DHT22;4099;52.684;9.918;2023-05-10T04:21:34;11.90;99.90
8114;DHT22;4099;52.684;9.918;2023-05-10T04:26:44;12.20;99.90
8114;DHT22;4099;52.684;9.918;2023-05-10T04:31:59;12.30;99.90
8114;DHT22;4099;52.684;9.918;2023-05-10T04:37:10;12.30;99.90
8114;DHT22;4099;52.684;9.918;2023-05-10T04:42:31;12.60;99.90
8114;DHT22;4099;52.684;9.918;2023-05-10T04:47:41;12.80;99.90
8114;DHT22;4099;52.684;9.918;2023-05-10T04:52:53;12.90;99.90
8114;DHT22;4099;52.684;9.918;2023-05-10T04:58:05;13.00;99.90
8114;DHT22;4099;52.684;9.918;2023-05-10T05:03:08;13.20;99.90
8114;DHT22;4099;52.684;9.918;2023-05-10T05:08:17;13.20;99.90
8114;DHT22;4099;52.684;9.918;2023-05-10T05:13:22;13.10;99.90
8114;DHT22;4099;52.684;9.918;2023-05-10T05:18:31;13.00;99.90
8114;DHT22;4099;52.684;9.918;2023-05-10T05:23:45;12.90;99.90
8114;DHT22;4099;52.684;9.918;2023-05-10T05:28:56;12.90;99.90
8114;DHT22;4099;52.684;9.918;2023-05-10T05:34:00;12.90;99.90
8114;DHT22;4099;52.684;9.918;2023-05-10T05:39:07;12.90;99.90
8114;DHT22;4099;52.684;9.918;2023-05-10T05:44:19;13.00;99.90
8114;DHT22;4099;52.684;9.918;2023-05-10T05:49:27;13.00;99.90
8114;DHT22;4099;52.684;9.918;2023-05-10T05:54:31;13.10;99.90
8114;DHT22;4099;52.684;9.918;2023-05-10T05:59:42;13.20;99.90
8114;DHT22;4099;52.684;9.918;2023-05-10T06:04:57;13.20;99.90
8114;DHT22;4099;52.684;9.918;2023-05-10T06:10:06;13.20;99.90
8114;DHT22;4099;52.684;9.918;2023-05-10T06:15:17;13.20;99.90
8114;DHT22;4099;52.684;9.918;2023-05-10T06:20:22;13.20;99.90
8114;DHT22;4099;52.684;9.918;2023-05-10T06:25:26;13.20;99.90
8114;DHT22;4099;52.684;9.918;2023-05-10T06:30:35;13.20;99.90
8114;DHT22;4099;52.684;9.918;2023-05-10T06:35:39;13.30;99.90
8114;DHT22;4099;52.684;9.918;2023-05-10T06:40:45;13.60;99.90
8114;DHT22;4099;52.684;9.918;2023-05-10T06:45:59;13.80;99.90
8114;DHT22;4099;52.684;9.918;2023-05-10T06:51:02;13.90;99.90
8114;DHT22;4099;52.684;9.918;2023-05-10T06:56:09;14.00;99.90
8114;DHT22;4099;52.684;9.918;2023-05-10T07:01:22;13.90;99.90
8114;DHT22;4099;52.684;9.918;2023-05-10T07:06:34;13.90;99.90
8114;DHT22;4099;52.684;9.918;2023-05-10T07:11:38;13.90;99.90
8114;DHT22;4099;52.684;9.918;2023-05-10T07:16:43;13.70;99.90
8114;DHT22;4099;52.684;9.918;2023-05-10T07:21:46;13.80;99.90
8114;DHT22;4099;52.684;9.918;2023-05-10T07:26:55;13.90;99.90
8114;DHT22;4099;52.684;9.918;2023-05-10T07:32:05;14.00;99.90
8114;DHT22;4099;52.684;9.918;2023-05-10T07:37:09;14.10;99.90
8114;DHT22;4099;52.684;9.918;2023-05-10T07:42:14;14.10;99.90
8114;DHT22;4099;52.684;9.918;2023-05-10T07:47:30;14.20;99.90
8114;DHT22;4099;52.684;9.918;2023-05-10T07:52:34;14.10;99.90
8114;DHT22;4099;52.684;9.918;2023-05-10T07:57:41;14.10;99.90
8114;DHT22;4099;52.684;9.918;2023-05-10T08:03:07;14.10;99.90
8114;DHT22;4099;52.684;9.918;2023-05-10T08:13:51;14.00;99.90
8114;DHT22;4099;52.684;9.918;2023-05-10T08:19:09;14.10;99.90
8114;DHT22;4099;52.684;9.918;2023-05-10T08:24:26;14.10;99.90
8114;DHT22;4099;52.684;9.918;2023-05-10T08:29:34;14.10;99.90
8114;DHT22;4099;52.684;9.918;2023-05-10T08:34:57;14.00;99.90
8114;DHT22;4099;52.684;9.918;2023-05-10T08:40:14;14.10;99.90
8114;DHT22;4099;52.684;9.918;2023-05-10T08:45:36;14.10;99.90
8114;DHT22;4099;52.684;9.918;2023-05-10T08:50:54;13.80;99.90
8114;DHT22;4099;52.684;9.918;2023-05-10T08:56:06;13.90;99.90
8114;DHT22;4099;52.684;9.918;2023-05-10T09:01:23;13.80;99.90
8114;DHT22;4099;52.684;9.918;2023-05-10T09:06:41;13.90;99.90
8114;DHT22;4099;52.684;9.918;2023-05-10T09:11:45;14.00;99.90
8114;DHT22;4099;52.684;9.918;2023-05-10T09:16:53;14.10;99.90
8114;DHT22;4099;52.684;9.918;2023-05-10T09:22:06;14.00;99.90
8114;DHT22;4099;52.684;9.918;2023-05-10T09:27:30;14.10;99.90
8114;DHT22;4099;52.684;9.918;2023-05-10T09:32:55;14.00;99.90
8114;DHT22;4099;52.684;9.918;2023-05-10T09:38:07;14.20;99.90
8114;DHT22;4099;52.684;9.918;2023-05-10T09:43:14;14.40;99.90
8114;DHT22;4099;52.684;9.918;2023-05-10T09:48:42;14.80;99.90
8114;DHT22;4099;52.684;9.918;2023-05-10T09:54:17;14.90;99.90
8114;DHT22;4099;52.684;9.918;2023-05-10T09:59:26;14.70;99.90
8114;DHT22;4099;52.684;9.918;2023-05-10T10:04:52;14.80;99.90
8114;DHT22;4099;52.684;9.918;2023-05-10T10:10:18;15.00;99.90
8114;DHT22;4099;52.684;9.918;2023-05-10T10:16:03;15.00;99.90
8114;DHT22;4099;52.684;9.918;2023-05-10T10:21:14;15.00;99.90
8114;DHT22;4099;52.684;9.918;2023-05-10T10:31:50;14.80;99.90
8114;DHT22;4099;52.684;9.918;2023-05-10T10:37:07;14.60;99.90
8114;DHT22;4099;52.684;9.918;2023-05-10T10:42:49;14.60;99.90
8114;DHT22;4099;52.684;9.918;2023-05-10T10:48:21;14.90;99.90
8114;DHT22;4099;52.684;9.918;2023-05-10T10:53:55;15.20;99.90
8114;DHT22;4099;52.684;9.918;2023-05-10T10:59:32;15.80;99.90
8114;DHT22;4099;52.684;9.918;2023-05-10T11:05:01;16.30;99.90
8114;DHT22;4099;52.684;9.918;2023-05-10T11:10:48;16.70;99.90
8114;DHT22;4099;52.684;9.918;2023-05-10T11:16:40;17.40;99.90
8114;DHT22;4099;52.684;9.918;2023-05-10T11:27:11;17.10;99.90
8114;DHT22;4099;52.684;9.918;2023-05-10T11:32:55;17.10;99.90
8114;DHT22;4099;52.684;9.918;2023-05-10T11:38:30;17.40;99.90
8114;DHT22;4099;52.684;9.918;2023-05-10T11:43:54;17.00;99.90
8114;DHT22;4099;52.684;9.918;2023-05-10T11:49:27;16.90;99.90
8114;DHT22;4099;52.684;9.918;2023-05-10T11:55:02;17.30;99.90
8114;DHT22;4099;52.684;9.918;2023-05-10T12:00:32;17.50;99.90
8114;DHT22;4099;52.684;9.918;2023-05-10T12:11:29;18.00;99.90
8114;DHT22;4099;52.684;9.918;2023-05-10T12:17:04;18.80;99.90
8114;DHT22;4099;52.684;9.918;2023-05-10T12:22:20;19.30;99.90
8114;DHT22;4099;52.684;9.918;2023-05-10T12:27:32;19.40;99.90
8114;DHT22;4099;52.684;9.918;2023-05-10T12:32:44;19.00;99.90
8114;DHT22;4099;52.684;9.918;2023-05-10T12:37:52;19.30;99.90
8114;DHT22;4099;52.684;9.918;2023-05-10T12:43:09;19.20;99.90
8114;DHT22;4099;52.684;9.918;2023-05-10T12:48:17;19.60;99.90
8114;DHT22;4099;52.684;9.918;2023-05-10T12:53:33;20.30;99.90
8114;DHT22;4099;52.684;9.918;2023-05-10T12:58:57;20.90;99.90
8114;DHT22;4099;52.684;9.918;2023-05-10T13:04:08;21.50;99.90
8114;DHT22;4099;52.684;9.918;2023-05-10T13:09:20;21.80;99.90
8114;DHT22;4099;52.684;9.918;2023-05-10T13:14:34;20.80;99.90
8114;DHT22;4099;52.684;9.918;2023-05-10T13:19:45;20.40;99.90
8114;DHT22;4099;52.684;9.918;2023-05-10T13:25:03;19.30;99.90
8114;DHT22;4099;52.684;9.918;2023-05-10T13:30:20;19.00;99.90
8114;DHT22;4099;52.684;9.918;2023-05-10T13:35:40;18.70;99.90
8114;DHT22;4099;52.684;9.918;2023-05-10T13:41:17;17.30;99.90
8114;DHT22;4099;52.684;9.918;2023-05-10T13:46:26;16.20;99.90
8114;DHT22;4099;52.684;9.918;2023-05-10T13:51:40;15.80;99.90
8114;DHT22;4099;52.684;9.918;2023-05-10T13:56:58;15.70;99.90
8114;DHT22;4099;52.684;9.918;2023-05-10T14:02:26;15.80;99.90
8114;DHT22;4099;52.684;9.918;2023-05-10T14:08:04;15.70;99.90
8114;DHT22;4099;52.684;9.918;2023-05-10T14:13:27;15.90;99.90
8114;DHT22;4099;52.684;9.918;2023-05-10T14:18:44;16.00;99.90
8114;DHT22;4099;52.684;9.918;2023-05-10T14:24:14;16.10;99.90
8114;DHT22;4099;52.684;9.918;2023-05-10T14:29:54;16.50;99.90
8114;DHT22;4099;52.684;9.918;2023-05-10T14:35:30;16.80;99.90
8114;DHT22;4099;52.684;9.918;2023-05-10T14:41:01;17.20;99.90
8114;DHT22;4099;52.684;9.918;2023-05-10T14:46:26;17.70;99.90
8114;DHT22;4099;52.684;9.918;2023-05-10T14:57:26;17.80;99.90
8114;DHT22;4099;52.684;9.918;2023-05-10T15:02:46;17.90;99.90
8114;DHT22;4099;52.684;9.918;2023-05-10T15:08:20;17.60;99.90
8114;DHT22;4099;52.684;9.918;2023-05-10T15:13:30;17.40;99.90
8114;DHT22;4099;52.684;9.918;2023-05-10T15:18:48;17.60;99.90
8114;DHT22;4099;52.684;9.918;2023-05-10T15:23:56;18.10;99.90
8114;DHT22;4099;52.684;9.918;2023-05-10T15:29:41;18.10;99.90
8114;DHT22;4099;52.684;9.918;2023-05-10T15:35:16;17.40;99.90
8114;DHT22;4099;52.684;9.918;2023-05-10T15:40:36;17.60;99.90
8114;DHT22;4099;52.684;9.918;2023-05-10T15:46:00;17.40;99.90
8114;DHT22;4099;52.684;9.918;2023-05-10T15:57:16;18.10;99.90
8114;DHT22;4099;52.684;9.918;2023-05-10T16:02:48;18.50;99.90
8114;DHT22;4099;52.684;9.918;2023-05-10T16:08:00;19.00;99.90
8114;DHT22;4099;52.684;9.918;2023-05-10T16:13:14;18.70;99.90
8114;DHT22;4099;52.684;9.918;2023-05-10T16:18:34;17.80;99.90
8114;DHT22;4099;52.684;9.918;2023-05-10T16:23:41;17.40;99.90
8114;DHT22;4099;52.684;9.918;2023-05-10T16:35:01;17.70;99.90
8114;DHT22;4099;52.684;9.918;2023-05-10T16:40:15;17.60;99.90
8114;DHT22;4099;52.684;9.918;2023-05-10T16:45:26;17.80;99.90
8114;DHT22;4099;52.684;9.918;2023-05-10T16:50:35;17.80;99.90
8114;DHT22;4099;52.684;9.918;2023-05-10T16:56:00;17.50;99.90
8114;DHT22;4099;52.684;9.918;2023-05-10T17:02:08;17.20;99.90
8114;DHT22;4099;52.684;9.918;2023-05-10T17:07:51;17.40;99.90
8114;DHT22;4099;52.684;9.918;2023-05-10T17:13:17;17.30;99.90
8114;DHT22;4099;52.684;9.918;2023-05-10T17:18:51;17.30;99.90
8114;DHT22;4099;52.684;9.918;2023-05-10T17:24:02;17.20;99.90
8114;DHT22;4099;52.684;9.918;2023-05-10T17:29:16;17.20;99.90
8114;DHT22;4099;52.684;9.918;2023-05-10T17:40:28;16.80;99.90
8114;DHT22;4099;52.684;9.918;2023-05-10T17:45:56;16.90;99.90
8114;DHT22;4099;52.684;9.918;2023-05-10T17:51:16;17.00;99.90
8114;DHT22;4099;52.684;9.918;2023-05-10T17:56:48;16.80;99.90
8114;DHT22;4099;52.684;9.918;2023-05-10T18:02:14;16.60;99.90
8114;DHT22;4099;52.684;9.918;2023-05-10T18:07:36;16.50;99.90
8114;DHT22;4099;52.684;9.918;2023-05-10T18:13:28;16.40;99.90
8114;DHT22;4099;52.684;9.918;2023-05-10T18:24:56;15.90;99.90
8114;DHT22;4099;52.684;9.918;2023-05-10T18:30:16;15.90;99.90
8114;DHT22;4099;52.684;9.918;2023-05-10T18:36:08;15.90;99.90
8114;DHT22;4099;52.684;9.918;2023-05-10T18:41:13;15.80;99.90
8114;DHT22;4099;52.684;9.918;2023-05-10T18:46:29;15.70;99.90
8114;DHT22;4099;52.684;9.918;2023-05-10T18:51:51;15.20;99.90
8114;DHT22;4099;52.684;9.918;2023-05-10T18:57:22;15.20;99.90
8114;DHT22;4099;52.684;9.918;2023-05-10T19:02:57;15.10;99.90
8114;DHT22;4099;52.684;9.918;2023-05-10T19:08:08;15.10;99.90
8114;DHT22;4099;52.684;9.918;2023-05-10T19:13:16;15.20;99.90
8114;DHT22;4099;52.684;9.918;2023-05-10T19:18:25;15.10;99.90
8114;DHT22;4099;52.684;9.918;2023-05-10T19:23:31;14.60;99.90
8114;DHT22;4099;52.684;9.918;2023-05-10T19:28:40;14.20;99.90
8114;DHT22;4099;52.684;9.918;2023-05-10T19:34:01;14.20;99.90
8114;DHT22;4099;52.684;9.918;2023-05-10T19:39:13;14.10;99.90
8114;DHT22;4099;52.684;9.918;2023-05-10T19:44:16;14.10;99.90
8114;DHT22;4099;52.684;9.918;2023-05-10T19:49:31;14.00;99.90
8114;DHT22;4099;52.684;9.918;2023-05-10T19:54:42;14.00;99.90
8114;DHT22;4099;52.684;9.918;2023-05-10T19:59:45;14.20;99.90
8114;DHT22;4099;52.684;9.918;2023-05-10T20:04:50;14.10;99.90
8114;DHT22;4099;52.684;9.918;2023-05-10T20:09:58;13.90;99.90
8114;DHT22;4099;52.684;9.918;2023-05-10T20:15:06;13.90;99.90
8114;DHT22;4099;52.684;9.918;2023-05-10T20:20:20;13.90;99.90
8114;DHT22;4099;52.684;9.918;2023-05-10T20:25:34;13.90;99.90
8114;DHT22;4099;52.684;9.918;2023-05-10T20:30:49;13.70;99.90
8114;DHT22;4099;52.684;9.918;2023-05-10T20:36:04;13.90;99.90
8114;DHT22;4099;52.684;9.918;2023-05-10T20:41:09;13.90;99.90
8114;DHT22;4099;52.684;9.918;2023-05-10T20:46:25;13.90;99.90
8114;DHT22;4099;52.684;9.918;2023-05-10T20:51:41;14.00;99.90
8114;DHT22;4099;52.684;9.918;2023-05-10T20:57:03;14.00;99.90
8114;DHT22;4099;52.684;9.918;2023-05-10T21:02:09;14.00;99.90
8114;DHT22;4099;52.684;9.918;2023-05-10T21:07:17;14.10;99.90
8114;DHT22;4099;52.684;9.918;2023-05-10T21:12:25;14.20;99.90
8114;DHT22;4099;52.684;9.918;2023-05-10T21:17:28;14.30;99.90
8114;DHT22;4099;52.684;9.918;2023-05-10T21:22:36;14.10;99.90
8114;DHT22;4099;52.684;9.918;2023-05-10T21:27:47;14.00;99.90
8114;DHT22;4099;52.684;9.918;2023-05-10T21:33:00;13.90;99.90
8114;DHT22;4099;52.684;9.918;2023-05-10T21:38:06;14.00;99.90
8114;DHT22;4099;52.684;9.918;2023-05-10T21:43:12;14.30;99.90
8114;DHT22;4099;52.684;9.918;2023-05-10T21:48:17;14.40;99.90
8114;DHT22;4099;52.684;9.918;2023-05-10T21:53:25;14.10;99.90
8114;DHT22;4099;52.684;9.918;2023-05-10T21:58:32;13.90;99.90
8114;DHT22;4099;52.684;9.918;2023-05-10T22:03:37;13.90;99.90
8114;DHT22;4099;52.684;9.918;2023-05-10T22:08:53;14.10;99.90
8114;DHT22;4099;52.684;9.918;2023-05-10T22:13:58;14.00;99.90
8114;DHT22;4099;52.684;9.918;2023-05-10T22:19:06;14.00;99.90
8114;DHT22;4099;52.684;9.918;2023-05-10T22:24:19;13.80;99.90
8114;DHT22;4099;52.684;9.918;2023-05-10T22:29:26;13.60;99.90
8114;DHT22;4099;52.684;9.918;2023-05-10T22:34:34;13.60;99.90
8114;DHT22;4099;52.684;9.918;2023-05-10T22:39:47;13.60;99.90
8114;DHT22;4099;52.684;9.918;2023-05-10T22:44:57;13.40;99.90
8114;DHT22;4099;52.684;9.918;2023-05-10T22:50:03;13.30;99.90
8114;DHT22;4099;52.684;9.918;2023-05-10T22:55:10;13.20;99.90
8114;DHT22;4099;52.684;9.918;2023-05-10T23:00:14;13.10;99.90
8114;DHT22;4099;52.684;9.918;2023-05-10T23:05:35;13.10;99.90
8114;DHT22;4099;52.684;9.918;2023-05-10T23:11:01;13.10;99.90
8114;DHT22;4099;52.684;9.918;2023-05-10T23:16:09;13.10;99.90
8114;DHT22;4099;52.684;9.918;2023-05-10T23:21:16;13.10;99.90
8114;DHT22;4099;52.684;9.918;2023-05-10T23:26:24;13.10;99.90
8114;DHT22;4099;52.684;9.918;2023-05-10T23:31:32;13.20;99.90
8114;DHT22;4099;52.684;9.918;2023-05-10T23:36:37;13.10;99.90
8114;DHT22;4099;52.684;9.918;2023-05-10T23:41:49;13.00;99.90
8114;DHT22;4099;52.684;9.918;2023-05-10T23:46:57;12.90;99.90
8114;DHT22;4099;52.684;9.918;2023-05-10T23:52:19;12.90;99.90
8114;DHT22;4099;52.684;9.918;2023-05-10T23:57:34;12.70;99.90
